createdAt,value
2018-04-23T00:03:04.375Z,17.00
2018-04-23T00:05:35.969Z,16.60
2018-04-23T00:08:10.323Z,16.30
2018-04-23T00:10:40.276Z,16.40
2018-04-23T00:13:10.387Z,16.20
2018-04-23T00:15:42.521Z,16.30
2018-04-23T00:18:12.515Z,16.00
2018-04-23T00:20:42.361Z,16.20
2018-04-23T00:23:12.207Z,16.20
2018-04-23T00:25:42.145Z,16.20
2018-04-23T00:28:12.044Z,16.10
2018-04-23T00:30:41.861Z,16.10
2018-04-23T00:33:11.767Z,16.30
2018-04-23T00:35:41.614Z,16.10
2018-04-23T00:38:11.460Z,16.00
2018-04-23T00:40:41.432Z,16.30
2018-04-23T00:43:11.233Z,16.50
2018-04-23T00:45:41.073Z,16.30
2018-04-23T00:48:10.946Z,16.10
2018-04-23T00:50:40.771Z,15.90
2018-04-23T00:53:21.670Z,15.80
2018-04-23T00:55:51.455Z,15.80
2018-04-23T00:58:21.247Z,15.60
2018-04-23T01:00:52.952Z,15.70
2018-04-23T01:03:23.581Z,16.20
2018-04-23T01:05:56.158Z,16.20
2018-04-23T01:08:28.501Z,16.40
2018-04-23T01:10:59.873Z,16.40
2018-04-23T01:13:29.687Z,16.20
2018-04-23T01:16:02.370Z,16.00
2018-04-23T01:18:32.397Z,16.30
2018-04-23T01:21:02.370Z,16.40
2018-04-23T01:23:32.206Z,16.40
2018-04-23T01:26:02.037Z,16.40
2018-04-23T01:28:31.946Z,16.40
2018-04-23T01:31:02.059Z,16.10
2018-04-23T01:33:32.148Z,16.30
2018-04-23T01:36:04.998Z,16.40
2018-04-23T01:38:35.000Z,16.20
2018-04-23T01:41:07.259Z,16.30
2018-04-23T01:43:37.061Z,16.30
2018-04-23T01:46:07.629Z,16.30
2018-04-23T01:48:37.507Z,16.30
2018-04-23T01:51:09.956Z,15.90
2018-04-23T01:53:39.932Z,15.90
2018-04-23T01:56:09.677Z,15.80
2018-04-23T01:58:39.566Z,15.50
2018-04-23T02:01:10.419Z,15.40
2018-04-23T02:03:41.403Z,15.40
2018-04-23T02:06:16.078Z,15.20
2018-04-23T02:08:49.433Z,15.00
2018-04-23T02:11:20.452Z,14.70
2018-04-23T02:13:50.355Z,14.60
2018-04-23T02:16:21.286Z,14.40
2018-04-23T02:18:54.667Z,14.30
2018-04-23T02:21:25.965Z,14.00
2018-04-23T02:23:56.453Z,14.00
2018-04-23T02:26:26.519Z,13.90
2018-04-23T02:28:56.466Z,13.70
2018-04-23T02:31:26.261Z,13.60
2018-04-23T02:33:56.103Z,13.40
2018-04-23T02:36:25.960Z,13.30
2018-04-23T02:38:56.392Z,13.10
2018-04-23T02:41:26.225Z,13.00
2018-04-23T02:43:55.972Z,13.00
2018-04-23T02:46:25.873Z,12.80
2018-04-23T02:48:55.800Z,12.80
2018-04-23T02:51:25.569Z,12.70
2018-04-23T02:53:55.386Z,12.60
2018-04-23T02:56:25.975Z,12.40
2018-04-23T02:58:55.799Z,12.40
2018-04-23T03:01:25.650Z,12.30
2018-04-23T03:03:55.471Z,12.20
2018-04-23T03:06:25.448Z,12.10
2018-04-23T03:08:55.237Z,12.00
2018-04-23T03:11:26.368Z,11.90
2018-04-23T03:13:58.239Z,11.80
2018-04-23T03:16:28.243Z,11.80
2018-04-23T03:18:59.695Z,11.70
2018-04-23T03:21:31.099Z,11.60
2018-04-23T03:24:00.924Z,11.50
2018-04-23T03:26:30.821Z,11.40
2018-04-23T03:29:00.716Z,11.40
2018-04-23T03:31:36.046Z,11.20
2018-04-23T03:34:05.763Z,11.20
2018-04-23T03:36:35.920Z,11.10
2018-04-23T03:39:06.077Z,11.00
2018-04-23T03:41:35.875Z,11.00
2018-04-23T03:44:05.660Z,10.90
2018-04-23T03:46:37.416Z,10.80
2018-04-23T03:49:09.753Z,10.70
2018-04-23T03:51:41.125Z,10.60
2018-04-23T03:54:13.365Z,10.40
2018-04-23T03:56:46.091Z,10.30
2018-04-23T03:59:16.171Z,10.30
2018-04-23T04:01:48.590Z,10.20
2018-04-23T04:04:19.727Z,10.20
2018-04-23T04:06:51.053Z,10.10
2018-04-23T04:09:22.826Z,10.10
2018-04-23T04:11:55.379Z,10.20
2018-04-23T04:14:37.815Z,10.20
2018-04-23T04:17:07.878Z,10.10
2018-04-23T04:19:40.316Z,10.10
2018-04-23T04:22:11.690Z,9.90
2018-04-23T04:24:43.009Z,9.80
2018-04-23T04:27:14.529Z,9.70
2018-04-23T04:29:46.505Z,9.60
2018-04-23T04:32:19.644Z,9.50
2018-04-23T04:34:51.068Z,9.50
2018-04-23T04:37:23.823Z,9.50
2018-04-23T04:39:53.612Z,9.50
2018-04-23T04:42:23.545Z,9.50
2018-04-23T04:44:53.344Z,9.50
2018-04-23T04:47:25.969Z,9.50
2018-04-23T04:49:58.338Z,9.50
2018-04-23T04:52:31.749Z,9.50
2018-04-23T04:55:04.312Z,9.50
2018-04-23T04:57:36.683Z,9.40
2018-04-23T05:00:09.064Z,9.40
2018-04-23T05:02:41.440Z,9.50
2018-04-23T05:05:11.441Z,9.40
2018-04-23T05:07:41.657Z,9.30
2018-04-23T05:10:13.839Z,9.30
2018-04-23T05:12:46.221Z,9.20
2018-04-23T05:15:17.975Z,9.20
2018-04-23T05:17:47.817Z,9.10
2018-04-23T05:20:20.677Z,9.10
2018-04-23T05:22:55.844Z,9.10
2018-04-23T05:25:28.483Z,9.10
2018-04-23T05:28:01.289Z,9.20
2018-04-23T05:30:33.640Z,9.10
2018-04-23T05:33:06.214Z,9.00
2018-04-23T05:35:38.389Z,8.90
2018-04-23T05:38:08.384Z,8.80
2018-04-23T05:40:40.473Z,8.80
2018-04-23T05:43:11.671Z,8.70
2018-04-23T05:45:41.509Z,8.70
2018-04-23T05:48:14.107Z,8.60
2018-04-23T05:50:46.676Z,8.50
2018-04-23T05:53:19.673Z,8.50
2018-04-23T05:55:52.452Z,8.50
2018-04-23T05:58:25.413Z,8.40
2018-04-23T06:00:56.740Z,8.40
2018-04-23T06:03:28.116Z,8.40
2018-04-23T06:05:59.455Z,8.30
2018-04-23T06:08:31.030Z,8.30
2018-04-23T06:11:03.236Z,8.30
2018-04-23T06:13:35.550Z,8.30
2018-04-23T06:16:08.364Z,8.20
2018-04-23T06:18:40.075Z,8.20
2018-04-23T06:21:11.282Z,8.10
2018-04-23T06:23:43.216Z,8.10
2018-04-23T06:26:15.180Z,8.00
2018-04-23T06:28:47.349Z,8.00
2018-04-23T06:31:20.751Z,7.90
2018-04-23T06:33:52.510Z,7.80
2018-04-23T06:36:24.065Z,7.80
2018-04-23T06:38:55.813Z,7.80
2018-04-23T06:41:27.548Z,7.70
2018-04-23T06:43:59.749Z,7.70
2018-04-23T06:46:31.293Z,7.70
2018-04-23T06:49:03.054Z,7.60
2018-04-23T06:51:34.193Z,7.60
2018-04-23T06:54:06.157Z,7.60
2018-04-23T06:56:35.974Z,7.60
2018-04-23T06:59:05.989Z,7.70
2018-04-23T07:01:38.158Z,7.60
2018-04-23T07:04:10.302Z,7.70
2018-04-23T07:06:40.036Z,7.60
2018-04-23T07:09:09.760Z,7.60
2018-04-23T07:11:39.486Z,7.70
2018-04-23T07:14:09.318Z,7.60
2018-04-23T07:16:41.145Z,7.60
2018-04-23T07:19:13.265Z,7.60
2018-04-23T07:21:43.102Z,7.60
2018-04-23T07:24:14.767Z,7.60
2018-04-23T07:26:46.319Z,7.60
2018-04-23T07:29:18.309Z,7.50
2018-04-23T07:31:50.249Z,7.50
2018-04-23T07:34:21.770Z,7.40
2018-04-23T07:36:53.103Z,7.40
2018-04-23T07:39:24.059Z,7.30
2018-04-23T07:41:56.663Z,7.20
2018-04-23T07:44:28.590Z,7.20
2018-04-23T07:47:00.168Z,7.10
2018-04-23T07:49:31.700Z,7.10
2018-04-23T07:52:03.064Z,7.00
2018-04-23T07:54:35.055Z,7.00
2018-04-23T07:57:07.016Z,6.90
2018-04-23T07:59:39.792Z,6.90
2018-04-23T08:02:12.575Z,6.80
2018-04-23T08:04:44.127Z,6.80
2018-04-23T08:07:15.682Z,6.70
2018-04-23T08:09:47.235Z,6.70
2018-04-23T08:12:18.429Z,6.70
2018-04-23T08:14:49.927Z,6.60
2018-04-23T08:17:21.247Z,6.60
2018-04-23T08:19:53.034Z,6.50
2018-04-23T08:22:25.003Z,6.50
2018-04-23T08:24:56.731Z,6.50
2018-04-23T08:27:28.709Z,6.50
2018-04-23T08:30:01.099Z,6.50
2018-04-23T08:32:33.065Z,6.40
2018-04-23T08:35:05.224Z,6.40
2018-04-23T08:37:36.523Z,6.40
2018-04-23T08:40:08.532Z,6.40
2018-04-23T08:42:40.288Z,6.30
2018-04-23T08:45:12.449Z,6.30
2018-04-23T08:47:43.775Z,6.30
2018-04-23T08:50:15.771Z,6.20
2018-04-23T08:52:47.124Z,6.20
2018-04-23T08:55:19.492Z,6.20
2018-04-23T08:57:51.221Z,6.10
2018-04-23T09:00:23.016Z,6.10
2018-04-23T09:02:54.325Z,6.00
2018-04-23T09:05:26.527Z,6.10
2018-04-23T09:07:58.046Z,6.00
2018-04-23T09:10:30.669Z,6.00
2018-04-23T09:13:02.424Z,6.00
2018-04-23T09:15:34.583Z,6.00
2018-04-23T09:18:06.749Z,6.00
2018-04-23T09:20:38.301Z,5.90
2018-04-23T09:23:09.657Z,5.90
2018-04-23T09:25:42.029Z,5.90
2018-04-23T09:28:13.566Z,5.80
2018-04-23T09:30:45.544Z,5.80
2018-04-23T09:33:18.328Z,5.70
2018-04-23T09:35:48.124Z,5.80
2018-04-23T09:38:17.911Z,5.80
2018-04-23T09:40:47.685Z,5.70
2018-04-23T09:43:19.627Z,5.70
2018-04-23T09:45:50.557Z,5.70
2018-04-23T09:48:21.909Z,5.70
2018-04-23T09:50:53.669Z,5.60
2018-04-23T09:53:25.630Z,5.60
2018-04-23T09:55:57.172Z,5.60
2018-04-23T09:58:28.326Z,5.50
2018-04-23T10:01:00.868Z,5.50
2018-04-23T10:03:46.997Z,5.50
2018-04-23T10:06:18.959Z,5.40
2018-04-23T10:08:50.904Z,5.40
2018-04-23T10:11:22.030Z,5.40
2018-04-23T10:13:53.377Z,5.40
2018-04-23T10:16:25.138Z,5.40
2018-04-23T10:18:56.297Z,5.30
2018-04-23T10:21:28.246Z,5.30
2018-04-23T10:24:00.232Z,5.30
2018-04-23T10:26:33.035Z,5.30
2018-04-23T10:29:05.172Z,5.30
2018-04-23T10:31:36.753Z,5.30
2018-04-23T10:34:08.481Z,5.30
2018-04-23T10:36:39.450Z,5.20
2018-04-23T10:39:10.586Z,5.20
2018-04-23T10:41:42.149Z,5.20
2018-04-23T10:44:13.710Z,5.20
2018-04-23T10:46:45.047Z,5.10
2018-04-23T10:49:16.782Z,5.10
2018-04-23T10:51:48.100Z,5.00
2018-04-23T10:54:20.116Z,5.00
2018-04-23T10:56:51.906Z,5.00
2018-04-23T10:59:23.043Z,4.90
2018-04-23T11:01:55.063Z,4.90
2018-04-23T11:04:26.322Z,4.90
2018-04-23T11:06:57.894Z,4.90
2018-04-23T11:09:29.672Z,4.90
2018-04-23T11:12:01.622Z,4.90
2018-04-23T11:14:33.352Z,4.90
2018-04-23T11:17:04.943Z,4.80
2018-04-23T11:19:36.083Z,4.80
2018-04-23T11:22:07.384Z,4.80
2018-04-23T11:24:38.576Z,4.80
2018-04-23T11:27:10.102Z,4.70
2018-04-23T11:29:41.222Z,4.70
2018-04-23T11:32:13.231Z,4.70
2018-04-23T11:34:43.168Z,4.70
2018-04-23T11:37:12.950Z,4.60
2018-04-23T11:39:42.825Z,4.60
2018-04-23T11:42:12.523Z,4.60
2018-04-23T11:44:43.637Z,4.60
2018-04-23T11:47:15.188Z,4.60
2018-04-23T11:49:47.101Z,4.50
2018-04-23T11:52:18.648Z,4.50
2018-04-23T11:54:50.820Z,4.50
2018-04-23T11:57:21.999Z,4.50
2018-04-23T11:59:53.535Z,4.50
2018-04-23T12:02:24.544Z,4.40
2018-04-23T12:04:55.820Z,4.40
2018-04-23T12:07:27.194Z,4.30
2018-04-23T12:09:58.509Z,4.30
2018-04-23T12:12:30.275Z,4.20
2018-04-23T12:15:01.661Z,4.20
2018-04-23T12:17:33.623Z,4.10
2018-04-23T12:20:05.151Z,4.20
2018-04-23T12:22:38.773Z,4.10
2018-04-23T12:25:10.977Z,4.10
2018-04-23T12:27:43.313Z,4.10
2018-04-23T12:30:15.282Z,4.10
2018-04-23T12:32:46.626Z,4.10
2018-04-23T12:35:17.695Z,4.00
2018-04-23T12:37:49.483Z,4.00
2018-04-23T12:40:21.293Z,4.00
2018-04-23T12:42:52.396Z,4.00
2018-04-23T12:45:24.375Z,4.00
2018-04-23T12:47:57.196Z,3.90
2018-04-23T12:50:29.137Z,4.00
2018-04-23T12:53:01.320Z,3.90
2018-04-23T12:55:33.010Z,3.90
2018-04-23T12:58:04.827Z,3.90
2018-04-23T13:00:36.787Z,3.90
2018-04-23T13:03:09.122Z,3.90
2018-04-23T13:05:41.128Z,3.80
2018-04-23T13:08:13.094Z,3.80
2018-04-23T13:10:43.091Z,3.80
2018-04-23T13:13:14.724Z,3.80
2018-04-23T13:15:44.599Z,3.80
2018-04-23T13:18:14.436Z,3.80
2018-04-23T13:20:44.500Z,3.80
2018-04-23T13:23:14.302Z,3.80
2018-04-23T13:25:46.387Z,3.80
2018-04-23T13:28:17.896Z,3.80
2018-04-23T13:30:47.731Z,3.80
2018-04-23T13:33:17.626Z,3.80
2018-04-23T13:35:48.905Z,3.90
2018-04-23T13:38:20.692Z,3.90
2018-04-23T13:40:51.787Z,3.90
2018-04-23T13:43:23.342Z,4.00
2018-04-23T13:45:54.879Z,4.00
2018-04-23T13:48:24.831Z,4.00
2018-04-23T13:50:56.243Z,4.10
2018-04-23T13:53:27.698Z,4.10
2018-04-23T13:55:59.040Z,4.20
2018-04-23T13:58:31.029Z,4.20
2018-04-23T14:01:00.791Z,4.20
2018-04-23T14:03:33.333Z,4.20
2018-04-23T14:06:05.072Z,4.30
2018-04-23T14:08:36.434Z,4.30
2018-04-23T14:11:07.989Z,4.40
2018-04-23T14:13:38.915Z,4.50
2018-04-23T14:16:10.060Z,4.60
2018-04-23T14:18:39.807Z,4.60
2018-04-23T14:21:09.577Z,4.70
2018-04-23T14:23:39.422Z,4.80
2018-04-23T14:26:11.782Z,4.90
2018-04-23T14:28:43.129Z,5.00
2018-04-23T14:31:15.304Z,5.10
2018-04-23T14:33:47.206Z,5.20
2018-04-23T14:36:18.554Z,5.30
2018-04-23T14:38:49.327Z,5.40
2018-04-23T14:41:20.691Z,5.40
2018-04-23T14:43:51.578Z,5.40
2018-04-23T14:46:23.368Z,5.50
2018-04-23T14:48:54.942Z,5.50
2018-04-23T14:51:26.700Z,5.60
2018-04-23T14:53:58.252Z,5.60
2018-04-23T14:56:30.421Z,5.70
2018-04-23T14:59:00.221Z,5.80
2018-04-23T15:01:31.304Z,5.90
2018-04-23T15:04:03.646Z,6.00
2018-04-23T15:06:34.887Z,6.20
2018-04-23T15:09:09.004Z,6.50
2018-04-23T15:11:40.974Z,6.50
2018-04-23T15:14:12.699Z,6.60
2018-04-23T15:16:43.864Z,6.80
2018-04-23T15:19:15.222Z,7.00
2018-04-23T15:21:45.030Z,7.10
2018-04-23T15:24:16.899Z,7.20
2018-04-23T15:26:48.856Z,7.30
2018-04-23T15:29:18.625Z,7.40
2018-04-23T15:31:48.369Z,7.50
2018-04-23T15:34:18.181Z,7.70
2018-04-23T15:36:47.991Z,7.80
2018-04-23T15:39:17.753Z,7.90
2018-04-23T15:41:47.546Z,7.90
2018-04-23T15:44:17.353Z,8.00
2018-04-23T15:46:49.200Z,8.10
2018-04-23T15:49:20.757Z,8.10
2018-04-23T15:51:52.916Z,8.30
2018-04-23T15:54:22.694Z,8.40
2018-04-23T15:56:52.473Z,8.50
2018-04-23T15:59:22.257Z,8.70
2018-04-23T16:01:52.080Z,8.80
2018-04-23T16:04:22.663Z,9.10
2018-04-23T16:06:52.412Z,9.00
2018-04-23T16:09:22.150Z,9.10
2018-04-23T16:11:52.170Z,9.20
2018-04-23T16:14:22.151Z,9.30
2018-04-23T16:16:51.951Z,9.40
2018-04-23T16:19:21.685Z,9.50
2018-04-23T16:21:52.204Z,9.70
2018-04-23T16:24:22.743Z,9.80
2018-04-23T16:26:52.565Z,9.80
2018-04-23T16:29:22.362Z,9.80
2018-04-23T16:31:52.918Z,9.90
2018-04-23T16:34:22.783Z,9.80
2018-04-23T16:36:55.080Z,10.00
2018-04-23T16:39:25.107Z,10.10
2018-04-23T16:41:57.156Z,10.20
2018-04-23T16:44:27.396Z,10.20
2018-04-23T16:46:57.176Z,10.30
2018-04-23T16:49:26.993Z,10.40
2018-04-23T16:51:56.758Z,10.60
2018-04-23T16:54:26.602Z,10.70
2018-04-23T16:56:56.404Z,10.80
2018-04-23T16:59:26.247Z,10.80
2018-04-23T17:01:56.220Z,11.00
2018-04-23T17:04:26.022Z,11.00
2018-04-23T17:06:58.761Z,11.10
2018-04-23T17:09:28.587Z,11.30
2018-04-23T17:11:58.390Z,11.40
2018-04-23T17:14:28.191Z,11.50
2018-04-23T17:16:58.090Z,11.60
2018-04-23T17:19:27.873Z,11.60
2018-04-23T17:21:57.621Z,11.60
2018-04-23T17:24:27.341Z,11.60
2018-04-23T17:26:57.080Z,11.80
2018-04-23T17:29:26.925Z,11.90
2018-04-23T17:31:56.695Z,12.00
2018-04-23T17:34:26.483Z,12.10
2018-04-23T17:36:56.514Z,12.30
2018-04-23T17:39:26.325Z,12.40
2018-04-23T17:41:56.137Z,12.40
2018-04-23T17:44:25.933Z,12.50
2018-04-23T17:46:58.227Z,12.60
2018-04-23T17:49:30.181Z,12.80
2018-04-23T17:52:00.248Z,13.00
2018-04-23T17:54:30.079Z,13.10
2018-04-23T17:57:02.389Z,13.30
2018-04-23T17:59:32.415Z,13.30
2018-04-23T18:02:02.221Z,13.30
2018-04-23T18:04:31.995Z,13.40
2018-04-23T18:07:01.745Z,13.50
2018-04-23T18:09:31.772Z,13.60
2018-04-23T18:12:01.611Z,13.70
2018-04-23T18:14:31.397Z,13.80
2018-04-23T18:17:01.181Z,13.90
2018-04-23T18:19:31.004Z,14.00
2018-04-23T18:22:00.784Z,14.10
2018-04-23T18:24:30.530Z,14.20
2018-04-23T18:27:00.353Z,14.30
2018-04-23T18:29:30.284Z,14.50
2018-04-23T18:32:00.373Z,14.50
2018-04-23T18:34:30.211Z,14.60
2018-04-23T18:37:00.061Z,14.80
2018-04-23T18:39:29.918Z,15.00
2018-04-23T18:41:59.716Z,15.10
2018-04-23T18:44:29.556Z,15.20
2018-04-23T18:46:59.390Z,15.20
2018-04-23T18:49:29.196Z,15.20
2018-04-23T18:51:59.053Z,15.30
2018-04-23T18:54:28.890Z,15.50
2018-04-23T18:56:58.700Z,15.50
2018-04-23T18:59:28.627Z,15.70
2018-04-23T19:01:58.357Z,15.80
2018-04-23T19:04:28.155Z,16.00
2018-04-23T19:06:58.735Z,16.10
2018-04-23T19:09:28.583Z,16.10
2018-04-23T19:11:58.473Z,16.30
2018-04-23T19:14:29.155Z,16.50
2018-04-23T19:16:59.028Z,16.40
2018-04-23T19:19:28.963Z,16.50
2018-04-23T19:21:58.834Z,16.60
2018-04-23T19:24:28.862Z,16.70
2018-04-23T19:26:58.626Z,16.70
2018-04-23T19:29:28.415Z,16.90
2018-04-23T19:31:58.246Z,17.10
2018-04-23T19:34:28.077Z,17.10
2018-04-23T19:36:58.173Z,17.10
2018-04-23T19:39:28.063Z,17.30
2018-04-23T19:41:57.781Z,17.40
2018-04-23T19:44:27.570Z,17.40
2018-04-23T19:46:57.409Z,17.60
2018-04-23T19:49:27.232Z,17.70
2018-04-23T19:51:57.062Z,17.60
2018-04-23T19:54:26.869Z,17.70
2018-04-23T19:56:56.749Z,17.90
2018-04-23T19:59:26.543Z,17.90
2018-04-23T20:01:56.388Z,18.10
2018-04-23T20:04:26.970Z,18.40
2018-04-23T20:06:56.783Z,18.30
2018-04-23T20:09:27.488Z,18.40
2018-04-23T20:11:57.325Z,18.30
2018-04-23T20:14:27.525Z,18.30
2018-04-23T20:16:57.367Z,18.40
2018-04-23T20:19:27.097Z,18.80
2018-04-23T20:21:57.888Z,19.00
2018-04-23T20:24:27.783Z,19.10
2018-04-23T20:26:57.694Z,19.10
2018-04-23T20:29:27.581Z,19.20
2018-04-23T20:31:57.385Z,19.30
2018-04-23T20:34:27.227Z,19.40
2018-04-23T20:36:56.972Z,19.50
2018-04-23T20:39:26.731Z,19.70
2018-04-23T20:41:56.508Z,19.60
2018-04-23T20:44:26.261Z,19.70
2018-04-23T20:46:56.149Z,19.70
2018-04-23T20:49:25.940Z,19.70
2018-04-23T20:51:55.696Z,19.80
2018-04-23T20:54:25.553Z,20.00
2018-04-23T20:56:55.354Z,20.10
2018-04-23T20:59:25.216Z,20.20
2018-04-23T21:01:55.287Z,20.30
2018-04-23T21:04:25.110Z,20.30
2018-04-23T21:06:54.858Z,20.50
2018-04-23T21:09:24.746Z,20.70
2018-04-23T21:11:55.321Z,20.70
2018-04-23T21:14:25.167Z,20.60
2018-04-23T21:16:55.802Z,20.90
2018-04-23T21:19:25.782Z,20.80
2018-04-23T21:21:55.599Z,21.00
2018-04-23T21:24:25.674Z,21.10
2018-04-23T21:26:55.428Z,20.70
2018-04-23T21:29:25.291Z,20.80
2018-04-23T21:31:55.149Z,20.90
2018-04-23T21:34:24.965Z,20.90
2018-04-23T21:36:54.982Z,21.10
2018-04-23T21:39:24.822Z,21.00
2018-04-23T21:41:54.715Z,21.10
2018-04-23T21:44:24.713Z,21.00
2018-04-23T21:46:55.310Z,21.00
2018-04-23T21:49:27.433Z,20.80
2018-04-23T21:51:59.099Z,20.80
2018-04-23T21:54:30.983Z,20.40
2018-04-23T21:57:00.763Z,20.40
2018-04-23T21:59:30.483Z,20.30
2018-04-23T22:02:00.278Z,20.10
2018-04-23T22:04:30.110Z,20.30
2018-04-23T22:07:00.029Z,20.30
2018-04-23T22:09:29.864Z,20.40
2018-04-23T22:11:59.740Z,20.50
2018-04-23T22:14:29.573Z,20.40
2018-04-23T22:16:59.575Z,20.40
2018-04-23T22:19:29.428Z,20.30
2018-04-23T22:21:59.177Z,20.20
2018-04-23T22:24:28.934Z,20.20
2018-04-23T22:26:58.732Z,20.30
2018-04-23T22:29:28.512Z,20.40
2018-04-23T22:31:58.282Z,20.60
2018-04-23T22:34:28.070Z,20.80
2018-04-23T22:36:57.830Z,20.80
2018-04-23T22:39:27.590Z,20.90
2018-04-23T22:41:59.863Z,21.00
2018-04-23T22:44:29.966Z,21.00
2018-04-23T22:46:59.815Z,20.80
2018-04-23T22:49:29.551Z,20.80
2018-04-23T22:51:59.319Z,20.70
2018-04-23T22:54:29.526Z,20.60
2018-04-23T22:56:59.420Z,20.60
2018-04-23T22:59:31.322Z,20.70
2018-04-23T23:02:03.669Z,20.60
2018-04-23T23:04:33.470Z,20.70
2018-04-23T23:07:03.395Z,20.70
2018-04-23T23:09:33.223Z,20.80
2018-04-23T23:12:03.089Z,20.90
2018-04-23T23:14:32.987Z,21.10
2018-04-23T23:17:02.850Z,21.10
2018-04-23T23:19:33.471Z,21.20
2018-04-23T23:22:04.642Z,21.20
2018-04-23T23:24:35.424Z,21.40
2018-04-23T23:27:05.291Z,21.50
2018-04-23T23:29:35.046Z,21.50
2018-04-23T23:32:04.877Z,21.40
2018-04-23T23:34:34.664Z,21.30
2018-04-23T23:37:04.604Z,21.40
2018-04-23T23:39:34.664Z,21.20
2018-04-23T23:42:04.456Z,21.20
2018-04-23T23:44:34.320Z,21.30
2018-04-23T23:47:04.091Z,21.20
2018-04-23T23:49:33.938Z,21.00
2018-04-23T23:52:03.713Z,20.90
2018-04-23T23:54:33.490Z,20.80
2018-04-23T23:57:03.255Z,20.80
2018-04-23T23:59:33.054Z,20.80
